Etusivu
METAR-TAF:

METAR-TAF

Lentoasemat :

Harstadin/Narvikin lentoasema

Evenes, Norja

Leveyspiiri: 68-31N, Pituuspiiri: 016-41E, korkeus merenpinnasta: 26 m

Tämänhetkinen sää

Tämä raportti tehtiin 43 minuuttia sitten, kello 09.50 UTC
Tuuli 9 kn idästä/kaakosta
Lämpötila 2°C
Kosteus 60%
Ilmanpaine 1016 hPa
Näkyvyys 10 km tai enemmän
Hajonneita pilviä 5900 ft:n korkeudessa

METAR: ENEV 170950Z 11009KT 9999 BKN059 02/M05 Q1016 RMK WIND 1400FT 11013KT

Aika: 11:33 (10:33 UTC)

Sääennuste

Tämä raportti tehtiin 2 tuntia ja 33 minuuttia sitten, kello 08.00 UTC
Ennuste voimassa 17. päivästä klo 09 UTC - 17. päivään klo 18 UTC
Tuuli 10 kn idästä/kaakosta
Näkyvyys 10 km tai enemmän
Hajonneita pilviä 4000 ft:n korkeudessa

TAF: ENEV 170800Z 1709/1718 12010KT 9999 BKN040

Säähavainnot ja -ennusteet yli 4000 lentoasemalta (METAR- ja TAF-raportit).

Käytössä olevat sääasemat on merkitty karttaan keltaisilla ja punaisilla pisteillä.

Aseta hiiri pisteen päälle nähdäksesi sääaseman nimen.

Klikkaa sitten nähdäksesi säähavainnot ja -ennusteet.

Kartan vaihtaminen: klikkaa mustalla rastilla varustettuja vihreitä pisteitä, niin voit zoomata sisään; viivalla varustettua vihreää pistettä, niin voit zoomata ulos tai vihreitä nuolia, niin pääset viereisille kartoille.


METAR-TAF: